Accueil
METAR-TAF:

METAR-TAF

Aéroports :

Sarzana, Italie

Luni

latitude: 44-05N, longitude: 009-59E, altitude: 9 m

Observation

Le bulletin a été fait il y a 7 heures et 24 minutes, à 13:55 UTC
Vent 8 kt de sud/sud-est
Température 16°C
Humidité 94%
Pression 1010 hPa
Visibilité: 5000 m
Nuages épars à une hauteur de 1000 ft
Nuages fragmentés à une hauteur de 2500 ft
brume

METAR: LIQW 261355Z 16008KT 5000 BR SCT010 BKN025 16/15 Q1010 RMK OVC VIS MIN 5000 WIND THR18 16009KT WHT

Heure: 23:19 (21:19 UTC)


TAF: absent

Observations et prévisions météorologiques de plus de 4000 aéroports (messages METAR et TAF).

Les stations disponibles sont représentées par des disques jaunes et rouges sur la carte.

Passer la souris dessus pour voir le nom de la station.

Cliquer dessus pour voir les observations et prévisions météorologiques.

Pour changer de carte: cliquez sur les boutons verts avec une croix noire pour zoomer, sur le bouton vert avec un tiret pour effectuer un zoom arrière, ou sur les flèches vertes pour les cartes adjacentes.


METAR-TAF: